createdAt,value
2022-11-27T00:02:22.562Z,13.60
2022-11-27T00:04:49.693Z,13.30
2022-11-27T00:07:16.830Z,13.98
2022-11-27T00:09:44.012Z,13.38
2022-11-27T00:12:11.150Z,15.10
2022-11-27T00:14:38.184Z,14.32
2022-11-27T00:17:05.280Z,15.70
2022-11-27T00:19:32.650Z,15.25
2022-11-27T00:21:59.797Z,16.25
2022-11-27T00:24:26.948Z,16.17
2022-11-27T00:26:54.078Z,16.60
2022-11-27T00:29:21.166Z,17.13
2022-11-27T00:31:48.286Z,17.70
2022-11-27T00:34:15.428Z,17.30
2022-11-27T00:36:46.565Z,16.50
2022-11-27T00:39:15.042Z,17.02
2022-11-27T00:41:42.104Z,16.35
2022-11-27T00:44:09.158Z,17.63
2022-11-27T00:46:36.295Z,16.90
2022-11-27T00:49:04.013Z,18.00
2022-11-27T00:51:31.122Z,17.70
2022-11-27T00:53:58.276Z,17.63
2022-11-27T00:56:29.547Z,18.00
2022-11-27T00:58:56.626Z,16.67
2022-11-27T01:01:33.583Z,17.13
2022-11-27T01:04:01.312Z,17.35
2022-11-27T01:06:28.688Z,17.60
2022-11-27T01:08:55.713Z,16.15
2022-11-27T01:11:25.652Z,16.65
2022-11-27T01:13:52.821Z,15.90
2022-11-27T01:16:20.721Z,16.95
2022-11-27T01:18:48.181Z,15.75
2022-11-27T01:21:15.818Z,14.60
2022-11-27T01:23:43.086Z,16.08
2022-11-27T01:26:10.871Z,15.73
2022-11-27T01:28:39.693Z,15.32
2022-11-27T01:31:07.459Z,15.10
2022-11-27T01:33:34.785Z,15.23
2022-11-27T01:36:02.413Z,13.43
2022-11-27T01:38:29.928Z,13.75
2022-11-27T01:41:00.410Z,13.60
2022-11-27T01:43:40.860Z,12.68
2022-11-27T01:46:17.335Z,12.30
2022-11-27T01:48:44.607Z,11.95
2022-11-27T01:51:11.667Z,10.13
2022-11-27T01:53:38.783Z,10.30
2022-11-27T01:56:05.968Z,9.43
2022-11-27T01:58:33.294Z,9.55
2022-11-27T02:01:00.367Z,9.88
2022-11-27T02:03:27.534Z,9.88
2022-11-27T02:05:54.682Z,10.30
2022-11-27T02:08:21.717Z,9.75
2022-11-27T02:11:00.764Z,9.52
2022-11-27T02:13:31.923Z,9.30
2022-11-27T02:16:18.136Z,9.35
2022-11-27T02:18:51.112Z,8.63
2022-11-27T02:21:27.548Z,7.40
2022-11-27T02:23:57.176Z,7.07
2022-11-27T02:26:24.230Z,7.40
2022-11-27T02:28:57.063Z,7.50
2022-11-27T02:31:26.737Z,6.85
2022-11-27T02:33:54.484Z,8.10
2022-11-27T02:36:25.193Z,6.78
2022-11-27T02:38:56.914Z,7.70
2022-11-27T02:41:31.041Z,7.78
2022-11-27T02:43:58.165Z,7.95
2022-11-27T02:46:25.204Z,8.30
2022-11-27T02:48:53.112Z,8.77
2022-11-27T02:51:24.117Z,9.10
2022-11-27T02:53:52.243Z,10.63
2022-11-27T02:56:21.422Z,11.10
2022-11-27T02:58:48.489Z,10.85
2022-11-27T03:01:16.109Z,11.52
2022-11-27T03:03:44.456Z,10.65
2022-11-27T03:06:12.072Z,12.55
2022-11-27T03:08:39.763Z,12.82
2022-11-27T03:11:07.993Z,13.20
2022-11-27T03:13:38.056Z,12.07
2022-11-27T03:16:11.321Z,13.43
2022-11-27T03:18:57.651Z,12.60
2022-11-27T03:21:28.890Z,13.05
2022-11-27T03:23:55.970Z,11.75
2022-11-27T03:26:23.019Z,12.02
2022-11-27T03:28:50.093Z,12.48
2022-11-27T03:31:17.189Z,13.45
2022-11-27T03:33:44.302Z,12.13
2022-11-27T03:36:13.047Z,12.38
2022-11-27T03:38:40.110Z,11.65
2022-11-27T03:41:10.132Z,12.68
2022-11-27T03:43:39.377Z,13.52
2022-11-27T03:46:17.087Z,12.40
2022-11-27T03:48:44.654Z,12.88
2022-11-27T03:51:20.327Z,14.82
2022-11-27T03:53:59.506Z,14.75
2022-11-27T03:56:32.586Z,14.95
2022-11-27T03:59:00.313Z,15.40
2022-11-27T04:01:27.404Z,14.40
2022-11-27T04:03:54.587Z,14.90
2022-11-27T04:06:21.714Z,15.07
2022-11-27T04:08:48.777Z,16.42
2022-11-27T04:11:15.929Z,15.75
2022-11-27T04:13:42.973Z,15.15
2022-11-27T04:16:10.077Z,14.70
2022-11-27T04:18:37.206Z,15.48
2022-11-27T04:21:04.518Z,15.82
2022-11-27T04:23:31.596Z,17.23
2022-11-27T04:25:58.671Z,16.23
2022-11-27T04:28:25.735Z,16.52
2022-11-27T04:30:53.378Z,16.42
2022-11-27T04:33:20.536Z,17.23
2022-11-27T04:35:47.594Z,16.08
2022-11-27T04:38:14.656Z,16.85
2022-11-27T04:40:41.771Z,15.50
2022-11-27T04:43:08.800Z,15.48
2022-11-27T04:45:36.810Z,16.20
2022-11-27T04:48:04.120Z,15.00
2022-11-27T04:50:31.211Z,14.55
2022-11-27T04:52:58.389Z,15.05
2022-11-27T04:55:25.447Z,15.90
2022-11-27T04:57:52.459Z,14.93
2022-11-27T05:00:19.864Z,15.68
2022-11-27T05:02:47.012Z,15.10
2022-11-27T05:05:14.154Z,14.90
2022-11-27T05:07:41.336Z,14.40
2022-11-27T05:10:08.862Z,15.23
2022-11-27T05:12:36.006Z,15.50
2022-11-27T05:15:04.588Z,14.13
2022-11-27T05:17:34.759Z,15.32
2022-11-27T05:20:01.789Z,15.68
2022-11-27T05:22:28.869Z,16.42
2022-11-27T05:24:55.918Z,16.40
2022-11-27T05:27:22.983Z,15.82
2022-11-27T05:29:50.094Z,17.75
2022-11-27T05:32:17.252Z,15.98
2022-11-27T05:34:44.297Z,15.85
2022-11-27T05:37:16.456Z,16.70
2022-11-27T05:39:46.411Z,16.98
2022-11-27T05:42:13.527Z,16.55
2022-11-27T05:44:40.870Z,14.85
2022-11-27T05:47:08.144Z,15.45
2022-11-27T05:49:35.316Z,15.88
2022-11-27T05:52:02.354Z,16.27
2022-11-27T05:54:29.369Z,16.02
2022-11-27T05:56:56.398Z,16.33
2022-11-27T05:59:23.409Z,15.95
2022-11-27T06:01:50.618Z,15.70
2022-11-27T06:04:17.765Z,15.32
2022-11-27T06:06:44.876Z,16.92
2022-11-27T06:09:13.494Z,16.10
2022-11-27T06:11:40.800Z,16.52
2022-11-27T06:14:08.858Z,16.73
2022-11-27T06:16:36.020Z,15.60
2022-11-27T06:19:03.101Z,16.08
2022-11-27T06:21:30.176Z,16.73
2022-11-27T06:23:57.402Z,17.77
2022-11-27T06:26:27.985Z,18.17
2022-11-27T06:31:23.008Z,17.15
2022-11-27T06:33:50.421Z,17.98
2022-11-27T06:36:17.698Z,17.08
2022-11-27T06:38:44.986Z,17.92
2022-11-27T06:41:12.893Z,18.08
2022-11-27T06:43:39.993Z,18.45
2022-11-27T06:46:07.504Z,20.30
2022-11-27T06:48:34.965Z,19.08
2022-11-27T06:51:02.517Z,18.90
2022-11-27T06:53:30.101Z,17.67
2022-11-27T06:55:57.466Z,19.08
2022-11-27T06:58:30.656Z,18.95
2022-11-27T07:01:01.465Z,18.05
2022-11-27T07:03:28.653Z,17.77
2022-11-27T07:05:55.704Z,17.92
2022-11-27T07:08:22.778Z,18.15
2022-11-27T07:10:49.896Z,19.80
2022-11-27T07:13:17.077Z,19.58
2022-11-27T07:15:44.228Z,18.60
2022-11-27T07:18:11.429Z,20.13
2022-11-27T07:20:38.526Z,19.33
2022-11-27T07:23:05.592Z,19.08
2022-11-27T07:25:32.704Z,19.55
2022-11-27T07:27:59.832Z,19.90
2022-11-27T07:30:26.897Z,20.55
2022-11-27T07:32:53.948Z,20.83
2022-11-27T07:35:20.966Z,20.05
2022-11-27T07:37:48.070Z,20.55
2022-11-27T07:40:15.286Z,19.77
2022-11-27T07:42:42.346Z,20.63
2022-11-27T07:45:09.599Z,21.20
2022-11-27T07:47:36.837Z,19.88
2022-11-27T07:50:04.176Z,19.77
2022-11-27T07:52:31.253Z,18.67
2022-11-27T07:54:58.298Z,18.98
2022-11-27T07:57:25.406Z,17.92
2022-11-27T07:59:52.477Z,17.02
2022-11-27T08:02:19.580Z,17.73
2022-11-27T08:04:46.669Z,17.70
2022-11-27T08:07:14.075Z,17.45
2022-11-27T08:09:59.080Z,16.88
2022-11-27T08:12:26.117Z,15.32
2022-11-27T08:14:53.161Z,15.90
2022-11-27T08:17:20.225Z,14.60
2022-11-27T08:19:47.282Z,13.85
2022-11-27T08:22:14.630Z,14.55
2022-11-27T08:24:42.592Z,13.82
2022-11-27T08:27:10.325Z,12.70
2022-11-27T08:29:37.669Z,11.02
2022-11-27T08:32:05.218Z,10.30
2022-11-27T08:34:32.390Z,9.60
2022-11-27T08:36:59.472Z,10.25
2022-11-27T08:39:27.331Z,9.35
2022-11-27T08:41:54.651Z,9.85
2022-11-27T08:44:21.729Z,9.13
2022-11-27T08:46:48.756Z,9.10
2022-11-27T08:49:15.868Z,7.70
2022-11-27T08:51:42.991Z,8.68
2022-11-27T08:54:10.060Z,9.88
2022-11-27T08:56:37.094Z,8.82
2022-11-27T08:59:04.164Z,9.05
2022-11-27T09:01:31.971Z,8.20
2022-11-27T09:03:59.392Z,8.57
2022-11-27T09:06:31.113Z,7.85
2022-11-27T09:09:01.590Z,7.88
2022-11-27T09:11:29.342Z,8.13
2022-11-27T09:13:56.388Z,8.52
2022-11-27T09:16:23.564Z,7.88
2022-11-27T09:18:51.362Z,7.90
2022-11-27T09:21:18.838Z,7.80
2022-11-27T09:23:45.932Z,8.68
2022-11-27T09:26:14.050Z,7.15
2022-11-27T09:28:41.152Z,7.88
2022-11-27T09:31:08.846Z,8.13
2022-11-27T09:33:36.307Z,8.02
2022-11-27T09:36:07.043Z,8.18
2022-11-27T09:38:34.150Z,7.75
2022-11-27T09:41:03.466Z,7.53
2022-11-27T09:43:31.461Z,8.57
2022-11-27T09:46:01.346Z,7.90
2022-11-27T09:48:41.880Z,6.97
2022-11-27T09:51:18.890Z,8.30
2022-11-27T09:53:50.740Z,7.82
2022-11-27T09:56:18.075Z,7.65
2022-11-27T09:58:53.844Z,7.40
2022-11-27T10:01:38.500Z,7.35
2022-11-27T10:04:13.137Z,7.40
2022-11-27T10:06:40.275Z,7.75
2022-11-27T10:09:22.687Z,7.55
2022-11-27T10:11:54.874Z,7.72
2022-11-27T10:14:37.475Z,6.28
2022-11-27T10:17:13.655Z,6.45
2022-11-27T10:19:51.475Z,6.25
2022-11-27T10:22:26.982Z,5.72
2022-11-27T10:24:57.154Z,6.15
2022-11-27T10:27:44.465Z,5.97
2022-11-27T10:30:16.377Z,5.95
2022-11-27T10:32:59.011Z,6.00
2022-11-27T10:35:27.153Z,6.00
2022-11-27T10:37:54.265Z,5.65
2022-11-27T10:40:23.442Z,6.20
2022-11-27T10:43:08.926Z,6.03
2022-11-27T10:45:39.171Z,5.75
2022-11-27T10:48:07.350Z,4.82
2022-11-27T10:50:34.546Z,5.30
2022-11-27T10:53:02.860Z,5.60
2022-11-27T10:55:51.682Z,6.28
2022-11-27T10:58:28.695Z,5.88
2022-11-27T11:01:06.909Z,6.22
2022-11-27T11:03:34.156Z,5.57
2022-11-27T11:06:21.433Z,5.97
2022-11-27T11:08:49.626Z,5.00
2022-11-27T11:11:25.208Z,4.93
2022-11-27T11:13:52.297Z,5.03
2022-11-27T11:16:24.360Z,4.93
2022-11-27T11:18:52.858Z,4.75
2022-11-27T11:21:23.871Z,4.45
2022-11-27T11:23:58.267Z,4.07
2022-11-27T11:26:26.571Z,4.82
2022-11-27T11:28:54.246Z,4.53
2022-11-27T11:31:28.908Z,3.80
2022-11-27T11:33:57.077Z,3.95
2022-11-27T11:36:24.129Z,3.97
2022-11-27T11:38:51.757Z,3.92
2022-11-27T11:41:18.877Z,4.40
2022-11-27T11:43:59.258Z,3.95
2022-11-27T11:46:28.645Z,4.00
2022-11-27T11:48:58.826Z,4.38
2022-11-27T11:51:41.737Z,4.55
2022-11-27T11:54:18.363Z,5.88
2022-11-27T11:56:46.132Z,4.20
2022-11-27T11:59:19.396Z,4.55
2022-11-27T12:01:54.127Z,4.18
2022-11-27T12:04:21.447Z,3.75
2022-11-27T12:06:54.365Z,3.92
2022-11-27T12:09:28.167Z,4.13
2022-11-27T12:11:58.662Z,3.80
2022-11-27T12:17:07.248Z,3.47
2022-11-27T12:19:34.865Z,3.63
2022-11-27T12:22:01.971Z,4.00
2022-11-27T12:24:55.298Z,4.25
2022-11-27T12:27:25.087Z,3.10
2022-11-27T12:29:52.166Z,4.20
2022-11-27T12:32:19.237Z,3.60
2022-11-27T12:34:57.621Z,3.42
2022-11-27T12:37:24.682Z,3.50
2022-11-27T12:39:57.525Z,3.83
2022-11-27T12:42:27.377Z,3.25
2022-11-27T12:45:13.191Z,4.13
2022-11-27T12:47:43.769Z,3.47
2022-11-27T12:52:41.878Z,3.30
2022-11-27T12:55:16.294Z,3.33
2022-11-27T12:57:50.515Z,3.53
2022-11-27T13:00:18.984Z,3.70
2022-11-27T13:02:49.128Z,3.75
2022-11-27T13:05:16.199Z,3.20
2022-11-27T13:07:52.384Z,4.75
2022-11-27T13:10:21.689Z,3.58
2022-11-27T13:13:01.207Z,4.13
2022-11-27T13:15:32.202Z,3.88
2022-11-27T13:18:07.319Z,3.28
2022-11-27T13:20:35.393Z,3.38
2022-11-27T13:23:02.506Z,3.25
2022-11-27T13:25:29.603Z,3.10
2022-11-27T13:27:56.751Z,3.60
2022-11-27T13:30:27.155Z,3.47
2022-11-27T13:32:54.941Z,3.35
2022-11-27T13:35:21.962Z,3.83
2022-11-27T13:37:49.565Z,3.95
2022-11-27T13:40:23.196Z,3.65
2022-11-27T13:42:53.237Z,3.80
2022-11-27T13:45:24.041Z,3.30
2022-11-27T13:47:51.114Z,3.80
2022-11-27T13:50:19.002Z,3.05
2022-11-27T13:52:52.136Z,3.05
2022-11-27T13:55:26.327Z,3.17
2022-11-27T13:57:53.837Z,2.88
2022-11-27T14:00:30.799Z,3.35
2022-11-27T14:02:57.869Z,3.10
2022-11-27T14:05:34.747Z,3.05
2022-11-27T14:08:01.869Z,3.45
2022-11-27T14:10:30.134Z,3.80
2022-11-27T14:13:03.999Z,3.20
2022-11-27T14:15:31.703Z,3.50
2022-11-27T14:18:10.896Z,3.92
2022-11-27T14:20:48.321Z,3.88
2022-11-27T14:23:15.428Z,4.60
2022-11-27T14:25:42.538Z,3.85
2022-11-27T14:28:16.746Z,3.90
2022-11-27T14:30:50.778Z,4.10
2022-11-27T14:33:21.915Z,4.03
2022-11-27T14:35:52.422Z,4.30
2022-11-27T14:38:19.602Z,4.57
2022-11-27T14:40:46.995Z,4.88
2022-11-27T14:43:17.994Z,4.43
2022-11-27T14:45:45.909Z,4.47
2022-11-27T14:48:16.157Z,5.40
2022-11-27T14:50:43.237Z,6.97
2022-11-27T14:53:10.252Z,6.55
2022-11-27T14:55:37.303Z,4.95
2022-11-27T14:58:04.366Z,5.68
2022-11-27T15:00:32.355Z,5.28
2022-11-27T15:03:09.458Z,4.07
2022-11-27T15:05:37.448Z,5.47
2022-11-27T15:08:04.790Z,4.30
2022-11-27T15:10:33.293Z,4.18
2022-11-27T15:13:00.959Z,4.93
2022-11-27T15:15:28.923Z,5.43
2022-11-27T15:17:57.136Z,4.55
2022-11-27T15:20:39.617Z,4.03
2022-11-27T15:23:13.754Z,4.43
2022-11-27T15:25:41.759Z,4.22
2022-11-27T15:28:24.177Z,4.85
2022-11-27T15:30:51.365Z,5.28
2022-11-27T15:33:28.145Z,5.50
2022-11-27T15:35:56.164Z,5.53
2022-11-27T15:38:23.237Z,5.97
2022-11-27T15:41:00.842Z,5.38
2022-11-27T15:43:27.968Z,5.65
2022-11-27T15:45:55.083Z,5.88
2022-11-27T15:48:22.687Z,6.07
2022-11-27T15:50:51.874Z,5.68
2022-11-27T15:53:19.164Z,5.97
2022-11-27T15:55:46.236Z,6.20
2022-11-27T15:58:13.270Z,5.78
2022-11-27T16:00:40.656Z,6.18
2022-11-27T16:03:07.894Z,5.57
2022-11-27T16:05:35.012Z,5.78
2022-11-27T16:08:04.172Z,6.30
2022-11-27T16:10:31.314Z,5.32
2022-11-27T16:13:01.605Z,5.50
2022-11-27T16:15:32.746Z,5.50
2022-11-27T16:18:00.245Z,7.00
2022-11-27T16:20:29.970Z,5.38
2022-11-27T16:22:57.136Z,5.03
2022-11-27T16:25:25.357Z,5.53
2022-11-27T16:27:55.646Z,5.82
2022-11-27T16:30:25.160Z,6.80
2022-11-27T16:32:52.170Z,5.90
2022-11-27T16:35:19.230Z,5.82
2022-11-27T16:37:46.269Z,5.78
2022-11-27T16:40:13.762Z,5.90
2022-11-27T16:42:40.798Z,6.22
2022-11-27T16:45:08.192Z,6.13
2022-11-27T16:47:35.259Z,5.72
2022-11-27T16:50:02.562Z,5.88
2022-11-27T16:52:29.693Z,6.45
2022-11-27T16:54:56.924Z,7.43
2022-11-27T16:57:23.992Z,6.32
2022-11-27T16:59:51.024Z,6.45
2022-11-27T17:02:18.160Z,7.45
2022-11-27T17:04:45.397Z,7.93
2022-11-27T17:07:12.501Z,8.07
2022-11-27T17:09:42.130Z,8.23
2022-11-27T17:12:09.244Z,8.38
2022-11-27T17:14:36.951Z,8.13
2022-11-27T17:17:05.687Z,7.65
2022-11-27T17:19:34.116Z,8.15
2022-11-27T17:22:01.432Z,7.55
2022-11-27T17:24:28.907Z,7.13
2022-11-27T17:26:56.070Z,8.07
2022-11-27T17:29:23.168Z,8.32
2022-11-27T17:31:50.593Z,8.05
2022-11-27T17:34:17.740Z,7.93
2022-11-27T17:36:45.255Z,8.60
2022-11-27T17:39:13.050Z,8.10
2022-11-27T17:41:40.569Z,9.35
2022-11-27T17:44:08.032Z,9.15
2022-11-27T17:46:36.234Z,9.30
2022-11-27T17:49:03.691Z,12.38
2022-11-27T17:51:31.407Z,13.55
2022-11-27T17:54:00.666Z,8.73
2022-11-27T17:56:28.177Z,8.82
2022-11-27T17:58:55.273Z,8.05
2022-11-27T18:01:23.246Z,8.35
2022-11-27T18:03:50.370Z,9.63
2022-11-27T18:06:17.890Z,8.13
2022-11-27T18:08:45.290Z,9.00
2022-11-27T18:11:16.397Z,9.27
2022-11-27T18:13:43.569Z,10.77
2022-11-27T18:16:11.799Z,9.27
2022-11-27T18:18:38.941Z,9.80
2022-11-27T18:21:08.643Z,10.30
2022-11-27T18:23:36.230Z,9.63
2022-11-27T18:26:06.718Z,9.40
2022-11-27T18:28:33.749Z,9.77
2022-11-27T18:31:13.288Z,9.60
2022-11-27T18:33:40.394Z,8.82
2022-11-27T18:36:07.877Z,9.98
2022-11-27T18:38:35.552Z,9.18
2022-11-27T18:41:12.818Z,10.00
2022-11-27T18:43:40.513Z,10.05
2022-11-27T18:46:07.928Z,10.02
2022-11-27T18:48:35.087Z,9.48
2022-11-27T18:51:05.167Z,9.48
2022-11-27T18:53:32.472Z,9.38
2022-11-27T18:56:06.649Z,10.27
2022-11-27T18:58:36.765Z,9.43
2022-11-27T19:01:05.104Z,9.18
2022-11-27T19:03:32.263Z,9.05
2022-11-27T19:06:03.000Z,9.10
2022-11-27T19:08:30.117Z,8.90
2022-11-27T19:11:00.824Z,9.00
2022-11-27T19:13:27.887Z,9.48
2022-11-27T19:15:54.965Z,9.73
2022-11-27T19:18:22.030Z,9.57
2022-11-27T19:20:49.116Z,9.63
2022-11-27T19:23:16.261Z,9.50
2022-11-27T19:25:43.346Z,9.18
2022-11-27T19:28:11.077Z,10.00
2022-11-27T19:30:41.886Z,10.40
2022-11-27T19:33:09.001Z,9.63
2022-11-27T19:35:36.082Z,9.60
2022-11-27T19:38:03.214Z,8.93
2022-11-27T19:40:30.948Z,9.60
2022-11-27T19:43:00.957Z,9.05
2022-11-27T19:45:28.614Z,9.60
2022-11-27T19:47:55.763Z,8.93
2022-11-27T19:50:22.910Z,10.15
2022-11-27T19:52:49.957Z,9.40
2022-11-27T19:55:17.011Z,10.50
2022-11-27T19:57:44.079Z,10.18
2022-11-27T20:00:12.365Z,10.75
2022-11-27T20:02:40.128Z,10.10
2022-11-27T20:05:07.492Z,10.82
2022-11-27T20:07:34.765Z,10.93
2022-11-27T20:10:02.008Z,10.07
2022-11-27T20:12:30.882Z,11.02
2022-11-27T20:14:59.611Z,11.15
2022-11-27T20:17:26.713Z,10.18
2022-11-27T20:19:53.788Z,9.90
2022-11-27T20:22:20.919Z,9.52
2022-11-27T20:25:17.374Z,10.82
2022-11-27T20:27:35.043Z,9.55
2022-11-27T20:30:02.146Z,9.55
2022-11-27T20:32:29.250Z,9.77
2022-11-27T20:34:56.314Z,9.60
2022-11-27T20:37:23.342Z,9.77
2022-11-27T20:39:50.442Z,9.55
2022-11-27T20:42:17.583Z,9.93
2022-11-27T20:44:44.684Z,9.38
2022-11-27T20:47:11.745Z,9.93
2022-11-27T20:49:38.874Z,9.73
2022-11-27T20:52:06.181Z,10.68
2022-11-27T20:54:33.242Z,10.05
2022-11-27T20:57:00.794Z,10.05
2022-11-27T20:59:27.869Z,10.23
2022-11-27T21:01:55.006Z,9.57
2022-11-27T21:04:23.171Z,10.30
2022-11-27T21:06:50.266Z,9.75
2022-11-27T21:09:17.323Z,9.77
2022-11-27T21:11:44.604Z,9.55
2022-11-27T21:14:12.761Z,9.30
2022-11-27T21:16:41.948Z,9.55
2022-11-27T21:19:12.839Z,8.55
2022-11-27T21:21:39.922Z,9.68
2022-11-27T21:24:07.142Z,9.93
2022-11-27T21:26:34.947Z,8.95
2022-11-27T21:29:02.090Z,8.77
2022-11-27T21:31:35.877Z,9.18
2022-11-27T21:34:04.684Z,8.90
2022-11-27T21:36:32.712Z,8.75
2022-11-27T21:39:00.184Z,9.27
2022-11-27T21:41:27.517Z,10.15
2022-11-27T21:43:55.409Z,9.68
2022-11-27T21:46:22.793Z,8.80
2022-11-27T21:48:50.564Z,9.18
2022-11-27T21:51:18.916Z,9.40
2022-11-27T21:53:46.170Z,9.70
2022-11-27T21:56:14.384Z,9.55
2022-11-27T21:58:41.414Z,9.35
2022-11-27T22:01:09.822Z,10.13
2022-11-27T22:03:42.156Z,9.15
2022-11-27T22:06:14.547Z,10.25
2022-11-27T22:08:42.197Z,10.00
2022-11-27T22:11:09.708Z,9.13
2022-11-27T22:13:36.862Z,10.13
2022-11-27T22:16:08.765Z,9.18
2022-11-27T22:18:35.881Z,9.93
2022-11-27T22:21:06.317Z,9.73
2022-11-27T22:23:33.486Z,10.15
2022-11-27T22:26:01.688Z,10.70
2022-11-27T22:28:29.150Z,11.63
2022-11-27T22:30:56.337Z,12.38
2022-11-27T22:33:23.627Z,11.88
2022-11-27T22:35:50.705Z,11.65
2022-11-27T22:38:17.786Z,12.23
2022-11-27T22:40:44.822Z,11.55
2022-11-27T22:43:11.926Z,11.15
2022-11-27T22:45:39.704Z,11.38
2022-11-27T22:48:07.092Z,11.30
2022-11-27T22:50:34.112Z,11.75
2022-11-27T22:53:01.146Z,11.73
2022-11-27T22:55:28.218Z,11.88
2022-11-27T22:57:55.292Z,11.57
2022-11-27T23:00:22.392Z,11.68
2022-11-27T23:02:49.512Z,10.95
2022-11-27T23:05:16.604Z,11.63
2022-11-27T23:07:43.739Z,11.63
2022-11-27T23:10:11.163Z,11.07
2022-11-27T23:12:38.219Z,11.40
2022-11-27T23:15:05.527Z,11.80
2022-11-27T23:17:32.563Z,12.05
2022-11-27T23:19:59.585Z,12.27
2022-11-27T23:22:27.059Z,11.90
2022-11-27T23:24:54.639Z,11.75
2022-11-27T23:27:21.707Z,11.82
2022-11-27T23:29:48.982Z,11.95
2022-11-27T23:32:16.152Z,11.95
2022-11-27T23:34:43.420Z,11.88
2022-11-27T23:37:10.783Z,12.55
2022-11-27T23:39:37.873Z,11.57
2022-11-27T23:42:05.328Z,11.68
2022-11-27T23:44:32.459Z,11.68
2022-11-27T23:46:59.530Z,11.50
2022-11-27T23:49:26.619Z,11.30
2022-11-27T23:51:53.669Z,11.60
2022-11-27T23:54:20.771Z,11.18
2022-11-27T23:56:51.102Z,11.45
2022-11-27T23:59:18.171Z,11.15
